sensor_id;sensor_type;location;lat;lon;timestamp;P1;durP1;ratioP1;P2;durP2;ratioP2
16426;SDS011;8322;-33.900;151.170;2023-05-19T00:01:14;3.38;;;1.35;;
16426;SDS011;8322;-33.900;151.170;2023-05-19T00:03:51;1.45;;;1.05;;
16426;SDS011;8322;-33.900;151.170;2023-05-19T00:06:22;3.40;;;1.42;;
16426;SDS011;8322;-33.900;151.170;2023-05-19T00:08:54;3.65;;;1.52;;
16426;SDS011;8322;-33.900;151.170;2023-05-19T00:11:24;2.83;;;1.40;;
16426;SDS011;8322;-33.900;151.170;2023-05-19T00:13:54;2.83;;;1.48;;
16426;SDS011;8322;-33.900;151.170;2023-05-19T00:16:24;2.13;;;1.20;;
16426;SDS011;8322;-33.900;151.170;2023-05-19T00:18:56;2.30;;;1.40;;
16426;SDS011;8322;-33.900;151.170;2023-05-19T00:21:26;1.83;;;1.20;;
16426;SDS011;8322;-33.900;151.170;2023-05-19T00:23:56;3.50;;;1.20;;
16426;SDS011;8322;-33.900;151.170;2023-05-19T00:26:26;1.83;;;1.25;;
16426;SDS011;8322;-33.900;151.170;2023-05-19T00:28:55;2.47;;;1.10;;
16426;SDS011;8322;-33.900;151.170;2023-05-19T00:31:25;4.80;;;1.40;;
16426;SDS011;8322;-33.900;151.170;2023-05-19T00:33:56;2.55;;;1.40;;
16426;SDS011;8322;-33.900;151.170;2023-05-19T00:36:25;2.80;;;1.20;;
16426;SDS011;8322;-33.900;151.170;2023-05-19T00:38:55;2.38;;;1.00;;
16426;SDS011;8322;-33.900;151.170;2023-05-19T00:41:24;1.85;;;1.40;;
16426;SDS011;8322;-33.900;151.170;2023-05-19T00:43:54;4.63;;;1.10;;
16426;SDS011;8322;-33.900;151.170;2023-05-19T00:46:23;1.13;;;1.00;;
16426;SDS011;8322;-33.900;151.170;2023-05-19T00:48:53;2.20;;;1.30;;
16426;SDS011;8322;-33.900;151.170;2023-05-19T00:51:24;3.95;;;1.20;;
16426;SDS011;8322;-33.900;151.170;2023-05-19T00:53:54;1.77;;;0.98;;
16426;SDS011;8322;-33.900;151.170;2023-05-19T00:56:24;4.70;;;1.23;;
16426;SDS011;8322;-33.900;151.170;2023-05-19T00:58:53;3.10;;;1.30;;
16426;SDS011;8322;-33.900;151.170;2023-05-19T01:01:23;2.80;;;1.20;;
16426;SDS011;8322;-33.900;151.170;2023-05-19T01:03:52;3.97;;;1.10;;
16426;SDS011;8322;-33.900;151.170;2023-05-19T01:06:25;3.67;;;1.40;;
16426;SDS011;8322;-33.900;151.170;2023-05-19T01:08:55;3.03;;;1.20;;
16426;SDS011;8322;-33.900;151.170;2023-05-19T01:11:24;2.67;;;1.13;;
16426;SDS011;8322;-33.900;151.170;2023-05-19T01:13:54;3.03;;;1.33;;
16426;SDS011;8322;-33.900;151.170;2023-05-19T01:16:24;1.42;;;1.08;;
16426;SDS011;8322;-33.900;151.170;2023-05-19T01:18:57;2.22;;;0.90;;
16426;SDS011;8322;-33.900;151.170;2023-05-19T01:24:37;1.75;;;0.75;;
16426;SDS011;8322;-33.900;151.170;2023-05-19T01:30:16;2.75;;;1.27;;
16426;SDS011;8322;-33.900;151.170;2023-05-19T01:32:50;2.55;;;1.17;;
16426;SDS011;8322;-33.900;151.170;2023-05-19T01:35:22;5.75;;;2.70;;
16426;SDS011;8322;-33.900;151.170;2023-05-19T01:37:53;1.50;;;1.20;;
16426;SDS011;8322;-33.900;151.170;2023-05-19T01:40:23;1.60;;;0.80;;
16426;SDS011;8322;-33.900;151.170;2023-05-19T01:42:53;0.98;;;0.82;;
16426;SDS011;8322;-33.900;151.170;2023-05-19T01:45:25;1.95;;;0.90;;
16426;SDS011;8322;-33.900;151.170;2023-05-19T01:47:56;1.65;;;1.00;;
16426;SDS011;8322;-33.900;151.170;2023-05-19T01:50:26;2.60;;;1.50;;
16426;SDS011;8322;-33.900;151.170;2023-05-19T01:52:56;4.95;;;2.65;;
16426;SDS011;8322;-33.900;151.170;2023-05-19T01:55:26;3.70;;;2.00;;
16426;SDS011;8322;-33.900;151.170;2023-05-19T01:57:59;1.20;;;1.10;;
16426;SDS011;8322;-33.900;151.170;2023-05-19T02:00:34;5.68;;;2.35;;
16426;SDS011;8322;-33.900;151.170;2023-05-19T02:03:12;2.53;;;0.80;;
16426;SDS011;8322;-33.900;151.170;2023-05-19T02:05:48;0.93;;;0.70;;
16426;SDS011;8322;-33.900;151.170;2023-05-19T02:08:23;1.13;;;0.77;;
16426;SDS011;8322;-33.900;151.170;2023-05-19T02:10:54;0.80;;;0.80;;
16426;SDS011;8322;-33.900;151.170;2023-05-19T02:13:26;2.30;;;1.33;;
16426;SDS011;8322;-33.900;151.170;2023-05-19T02:16:01;2.55;;;1.75;;
16426;SDS011;8322;-33.900;151.170;2023-05-19T02:18:31;1.30;;;1.10;;
16426;SDS011;8322;-33.900;151.170;2023-05-19T02:21:01;1.60;;;1.20;;
16426;SDS011;8322;-33.900;151.170;2023-05-19T02:23:30;1.17;;;0.93;;
16426;SDS011;8322;-33.900;151.170;2023-05-19T02:26:00;1.02;;;0.70;;
16426;SDS011;8322;-33.900;151.170;2023-05-19T02:28:29;1.30;;;0.77;;
16426;SDS011;8322;-33.900;151.170;2023-05-19T02:31:01;1.83;;;1.48;;
16426;SDS011;8322;-33.900;151.170;2023-05-19T02:33:31;1.55;;;1.20;;
16426;SDS011;8322;-33.900;151.170;2023-05-19T02:36:01;3.42;;;1.20;;
16426;SDS011;8322;-33.900;151.170;2023-05-19T02:38:30;1.98;;;1.55;;
16426;SDS011;8322;-33.900;151.170;2023-05-19T02:41:00;1.77;;;1.20;;
16426;SDS011;8322;-33.900;151.170;2023-05-19T02:43:29;1.98;;;1.80;;
16426;SDS011;8322;-33.900;151.170;2023-05-19T02:46:01;2.60;;;1.63;;
16426;SDS011;8322;-33.900;151.170;2023-05-19T02:48:30;2.10;;;1.70;;
16426;SDS011;8322;-33.900;151.170;2023-05-19T02:50:59;2.03;;;1.77;;
16426;SDS011;8322;-33.900;151.170;2023-05-19T02:53:29;1.45;;;1.20;;
16426;SDS011;8322;-33.900;151.170;2023-05-19T02:55:59;1.48;;;0.70;;
16426;SDS011;8322;-33.900;151.170;2023-05-19T02:58:28;0.95;;;0.80;;
16426;SDS011;8322;-33.900;151.170;2023-05-19T03:00:57;2.25;;;0.90;;
16426;SDS011;8322;-33.900;151.170;2023-05-19T03:03:29;2.35;;;0.80;;
16426;SDS011;8322;-33.900;151.170;2023-05-19T03:05:59;2.08;;;0.70;;
16426;SDS011;8322;-33.900;151.170;2023-05-19T03:08:28;0.73;;;0.70;;
16426;SDS011;8322;-33.900;151.170;2023-05-19T03:10:58;0.70;;;0.70;;
16426;SDS011;8322;-33.900;151.170;2023-05-19T03:13:27;1.17;;;0.80;;
16426;SDS011;8322;-33.900;151.170;2023-05-19T03:15:57;1.92;;;0.70;;
16426;SDS011;8322;-33.900;151.170;2023-05-19T03:18:26;1.00;;;0.70;;
16426;SDS011;8322;-33.900;151.170;2023-05-19T03:20:58;2.58;;;0.88;;
16426;SDS011;8322;-33.900;151.170;2023-05-19T03:23:27;0.93;;;0.80;;
16426;SDS011;8322;-33.900;151.170;2023-05-19T03:25:57;2.38;;;1.40;;
16426;SDS011;8322;-33.900;151.170;2023-05-19T03:28:26;2.50;;;0.90;;
16426;SDS011;8322;-33.900;151.170;2023-05-19T03:30:56;1.60;;;1.10;;
16426;SDS011;8322;-33.900;151.170;2023-05-19T03:33:25;1.83;;;1.40;;
16426;SDS011;8322;-33.900;151.170;2023-05-19T03:35:55;1.42;;;0.90;;
16426;SDS011;8322;-33.900;151.170;2023-05-19T03:38:26;1.58;;;0.82;;
16426;SDS011;8322;-33.900;151.170;2023-05-19T03:40:56;1.35;;;0.90;;
16426;SDS011;8322;-33.900;151.170;2023-05-19T03:43:25;1.95;;;1.00;;
16426;SDS011;8322;-33.900;151.170;2023-05-19T03:45:55;1.42;;;0.77;;
16426;SDS011;8322;-33.900;151.170;2023-05-19T03:48:24;2.63;;;0.80;;
16426;SDS011;8322;-33.900;151.170;2023-05-19T03:50:54;3.55;;;0.75;;
16426;SDS011;8322;-33.900;151.170;2023-05-19T03:53:23;1.67;;;0.73;;
16426;SDS011;8322;-33.900;151.170;2023-05-19T03:55:57;1.73;;;0.65;;
16426;SDS011;8322;-33.900;151.170;2023-05-19T03:58:26;1.58;;;0.80;;
16426;SDS011;8322;-33.900;151.170;2023-05-19T04:00:56;1.30;;;0.75;;
16426;SDS011;8322;-33.900;151.170;2023-05-19T04:03:26;0.80;;;0.80;;
16426;SDS011;8322;-33.900;151.170;2023-05-19T04:05:55;0.93;;;0.80;;
16426;SDS011;8322;-33.900;151.170;2023-05-19T04:08:25;0.73;;;0.60;;
16426;SDS011;8322;-33.900;151.170;2023-05-19T04:10:56;0.70;;;0.63;;
16426;SDS011;8322;-33.900;151.170;2023-05-19T04:13:25;2.00;;;0.77;;
16426;SDS011;8322;-33.900;151.170;2023-05-19T04:15:55;1.58;;;0.80;;
16426;SDS011;8322;-33.900;151.170;2023-05-19T04:18:24;1.27;;;0.60;;
16426;SDS011;8322;-33.900;151.170;2023-05-19T04:20:54;0.70;;;0.70;;
16426;SDS011;8322;-33.900;151.170;2023-05-19T04:23:23;1.15;;;0.80;;
16426;SDS011;8322;-33.900;151.170;2023-05-19T04:25:53;1.73;;;1.00;;
16426;SDS011;8322;-33.900;151.170;2023-05-19T04:28:25;1.77;;;0.80;;
16426;SDS011;8322;-33.900;151.170;2023-05-19T04:30:55;2.53;;;0.85;;
16426;SDS011;8322;-33.900;151.170;2023-05-19T04:33:25;1.20;;;1.10;;
16426;SDS011;8322;-33.900;151.170;2023-05-19T04:35:54;2.70;;;1.85;;
16426;SDS011;8322;-33.900;151.170;2023-05-19T04:38:23;3.33;;;2.08;;
16426;SDS011;8322;-33.900;151.170;2023-05-19T04:40:54;3.58;;;2.70;;
16426;SDS011;8322;-33.900;151.170;2023-05-19T04:43:28;1.25;;;1.00;;
16426;SDS011;8322;-33.900;151.170;2023-05-19T04:45:57;1.73;;;1.30;;
16426;SDS011;8322;-33.900;151.170;2023-05-19T04:48:27;2.65;;;1.63;;
16426;SDS011;8322;-33.900;151.170;2023-05-19T04:50:56;2.38;;;1.60;;
16426;SDS011;8322;-33.900;151.170;2023-05-19T04:53:27;3.53;;;1.83;;
16426;SDS011;8322;-33.900;151.170;2023-05-19T04:55:56;2.25;;;1.70;;
16426;SDS011;8322;-33.900;151.170;2023-05-19T04:58:29;3.03;;;1.60;;
16426;SDS011;8322;-33.900;151.170;2023-05-19T05:00:58;1.17;;;1.00;;
16426;SDS011;8322;-33.900;151.170;2023-05-19T05:03:28;1.52;;;0.80;;
16426;SDS011;8322;-33.900;151.170;2023-05-19T05:05:59;1.48;;;0.80;;
16426;SDS011;8322;-33.900;151.170;2023-05-19T05:08:29;1.90;;;0.80;;
16426;SDS011;8322;-33.900;151.170;2023-05-19T05:10:59;1.75;;;1.13;;
16426;SDS011;8322;-33.900;151.170;2023-05-19T05:13:30;5.05;;;2.17;;
16426;SDS011;8322;-33.900;151.170;2023-05-19T05:16:00;3.97;;;2.17;;
16426;SDS011;8322;-33.900;151.170;2023-05-19T05:18:31;1.58;;;1.08;;
16426;SDS011;8322;-33.900;151.170;2023-05-19T05:21:01;1.33;;;1.23;;
16426;SDS011;8322;-33.900;151.170;2023-05-19T05:23:31;0.90;;;0.90;;
16426;SDS011;8322;-33.900;151.170;2023-05-19T05:26:00;1.77;;;1.17;;
16426;SDS011;8322;-33.900;151.170;2023-05-19T05:28:35;2.08;;;1.00;;
16426;SDS011;8322;-33.900;151.170;2023-05-19T05:31:05;0.85;;;0.70;;
16426;SDS011;8322;-33.900;151.170;2023-05-19T05:33:34;1.17;;;1.08;;
16426;SDS011;8322;-33.900;151.170;2023-05-19T05:36:04;1.67;;;1.10;;
16426;SDS011;8322;-33.900;151.170;2023-05-19T05:38:34;1.10;;;0.90;;
16426;SDS011;8322;-33.900;151.170;2023-05-19T05:41:03;0.70;;;0.70;;
16426;SDS011;8322;-33.900;151.170;2023-05-19T05:43:33;1.05;;;0.70;;
16426;SDS011;8322;-33.900;151.170;2023-05-19T05:46:04;1.30;;;0.77;;
16426;SDS011;8322;-33.900;151.170;2023-05-19T05:48:34;0.68;;;0.60;;
16426;SDS011;8322;-33.900;151.170;2023-05-19T05:51:03;0.85;;;0.82;;
16426;SDS011;8322;-33.900;151.170;2023-05-19T05:53:33;0.60;;;0.60;;
16426;SDS011;8322;-33.900;151.170;2023-05-19T05:56:05;1.60;;;0.82;;
16426;SDS011;8322;-33.900;151.170;2023-05-19T05:58:35;1.13;;;0.70;;
16426;SDS011;8322;-33.900;151.170;2023-05-19T06:01:07;1.10;;;0.90;;
16426;SDS011;8322;-33.900;151.170;2023-05-19T06:03:37;1.13;;;0.75;;
16426;SDS011;8322;-33.900;151.170;2023-05-19T06:06:07;1.33;;;0.80;;
16426;SDS011;8322;-33.900;151.170;2023-05-19T06:08:36;3.42;;;2.22;;
16426;SDS011;8322;-33.900;151.170;2023-05-19T06:11:06;2.33;;;1.50;;
16426;SDS011;8322;-33.900;151.170;2023-05-19T06:13:36;1.88;;;1.00;;
16426;SDS011;8322;-33.900;151.170;2023-05-19T06:16:08;1.60;;;1.00;;
16426;SDS011;8322;-33.900;151.170;2023-05-19T06:18:37;1.00;;;0.80;;
16426;SDS011;8322;-33.900;151.170;2023-05-19T06:21:07;2.42;;;1.10;;
16426;SDS011;8322;-33.900;151.170;2023-05-19T06:23:38;7.22;;;1.33;;
16426;SDS011;8322;-33.900;151.170;2023-05-19T06:26:08;7.72;;;1.33;;
16426;SDS011;8322;-33.900;151.170;2023-05-19T06:28:37;1.77;;;0.98;;
16426;SDS011;8322;-33.900;151.170;2023-05-19T06:31:08;3.15;;;1.10;;
16426;SDS011;8322;-33.900;151.170;2023-05-19T06:33:38;2.60;;;1.08;;
16426;SDS011;8322;-33.900;151.170;2023-05-19T06:36:07;3.35;;;1.00;;
16426;SDS011;8322;-33.900;151.170;2023-05-19T06:38:37;3.95;;;1.40;;
16426;SDS011;8322;-33.900;151.170;2023-05-19T06:41:07;5.40;;;1.20;;
16426;SDS011;8322;-33.900;151.170;2023-05-19T06:43:36;5.00;;;1.08;;
16426;SDS011;8322;-33.900;151.170;2023-05-19T06:46:06;3.13;;;1.10;;
16426;SDS011;8322;-33.900;151.170;2023-05-19T06:48:38;5.15;;;1.45;;
16426;SDS011;8322;-33.900;151.170;2023-05-19T06:51:07;3.65;;;1.27;;
16426;SDS011;8322;-33.900;151.170;2023-05-19T06:53:37;2.63;;;1.00;;
16426;SDS011;8322;-33.900;151.170;2023-05-19T06:56:06;3.90;;;1.00;;
16426;SDS011;8322;-33.900;151.170;2023-05-19T06:58:36;2.83;;;1.40;;
16426;SDS011;8322;-33.900;151.170;2023-05-19T07:01:05;4.13;;;1.30;;
16426;SDS011;8322;-33.900;151.170;2023-05-19T07:03:37;2.03;;;1.30;;
16426;SDS011;8322;-33.900;151.170;2023-05-19T07:06:06;2.78;;;1.90;;
16426;SDS011;8322;-33.900;151.170;2023-05-19T07:08:36;4.35;;;2.00;;
16426;SDS011;8322;-33.900;151.170;2023-05-19T07:11:05;3.42;;;1.80;;
16426;SDS011;8322;-33.900;151.170;2023-05-19T07:13:35;4.85;;;1.92;;
16426;SDS011;8322;-33.900;151.170;2023-05-19T07:16:04;5.35;;;1.80;;
16426;SDS011;8322;-33.900;151.170;2023-05-19T07:18:34;4.43;;;1.80;;
16426;SDS011;8322;-33.900;151.170;2023-05-19T07:21:05;6.00;;;1.70;;
16426;SDS011;8322;-33.900;151.170;2023-05-19T07:23:35;4.07;;;1.70;;
16426;SDS011;8322;-33.900;151.170;2023-05-19T07:26:04;4.28;;;1.83;;
16426;SDS011;8322;-33.900;151.170;2023-05-19T07:28:33;3.95;;;1.60;;
16426;SDS011;8322;-33.900;151.170;2023-05-19T07:31:03;4.70;;;1.80;;
16426;SDS011;8322;-33.900;151.170;2023-05-19T07:33:32;4.30;;;1.75;;
16426;SDS011;8322;-33.900;151.170;2023-05-19T07:36:02;5.32;;;2.08;;
16426;SDS011;8322;-33.900;151.170;2023-05-19T07:38:33;5.63;;;1.73;;
16426;SDS011;8322;-33.900;151.170;2023-05-19T07:41:03;5.93;;;1.90;;
16426;SDS011;8322;-33.900;151.170;2023-05-19T07:43:32;5.05;;;2.30;;
16426;SDS011;8322;-33.900;151.170;2023-05-19T07:46:02;6.50;;;1.98;;
16426;SDS011;8322;-33.900;151.170;2023-05-19T07:48:32;5.40;;;1.85;;
16426;SDS011;8322;-33.900;151.170;2023-05-19T07:51:01;7.63;;;2.40;;
16426;SDS011;8322;-33.900;151.170;2023-05-19T07:53:31;4.72;;;2.10;;
16426;SDS011;8322;-33.900;151.170;2023-05-19T07:56:03;5.85;;;2.22;;
16426;SDS011;8322;-33.900;151.170;2023-05-19T07:58:32;5.22;;;2.20;;
16426;SDS011;8322;-33.900;151.170;2023-05-19T08:01:02;7.72;;;2.47;;
16426;SDS011;8322;-33.900;151.170;2023-05-19T08:03:31;9.88;;;2.85;;
16426;SDS011;8322;-33.900;151.170;2023-05-19T08:06:01;6.22;;;2.22;;
16426;SDS011;8322;-33.900;151.170;2023-05-19T08:08:30;5.25;;;2.20;;
16426;SDS011;8322;-33.900;151.170;2023-05-19T08:11:02;5.32;;;2.33;;
16426;SDS011;8322;-33.900;151.170;2023-05-19T08:13:34;7.63;;;2.03;;
16426;SDS011;8322;-33.900;151.170;2023-05-19T08:16:04;5.00;;;1.92;;
16426;SDS011;8322;-33.900;151.170;2023-05-19T08:18:33;5.18;;;2.38;;
16426;SDS011;8322;-33.900;151.170;2023-05-19T08:21:03;6.93;;;2.30;;
16426;SDS011;8322;-33.900;151.170;2023-05-19T08:23:33;5.28;;;2.47;;
16426;SDS011;8322;-33.900;151.170;2023-05-19T08:26:05;6.75;;;2.40;;
16426;SDS011;8322;-33.900;151.170;2023-05-19T08:28:34;7.75;;;2.70;;
16426;SDS011;8322;-33.900;151.170;2023-05-19T08:31:04;5.70;;;2.17;;
16426;SDS011;8322;-33.900;151.170;2023-05-19T08:33:33;4.75;;;2.50;;
16426;SDS011;8322;-33.900;151.170;2023-05-19T08:36:03;6.70;;;2.25;;
16426;SDS011;8322;-33.900;151.170;2023-05-19T08:38:33;7.78;;;2.58;;
16426;SDS011;8322;-33.900;151.170;2023-05-19T08:41:03;4.97;;;2.80;;
16426;SDS011;8322;-33.900;151.170;2023-05-19T08:43:34;6.38;;;3.75;;
16426;SDS011;8322;-33.900;151.170;2023-05-19T08:46:04;6.38;;;3.30;;
16426;SDS011;8322;-33.900;151.170;2023-05-19T08:48:34;12.05;;;7.45;;
16426;SDS011;8322;-33.900;151.170;2023-05-19T08:51:09;16.45;;;11.20;;
16426;SDS011;8322;-33.900;151.170;2023-05-19T08:53:41;17.15;;;10.00;;
16426;SDS011;8322;-33.900;151.170;2023-05-19T08:56:14;12.98;;;7.78;;
16426;SDS011;8322;-33.900;151.170;2023-05-19T08:58:46;12.10;;;5.65;;
16426;SDS011;8322;-33.900;151.170;2023-05-19T09:01:17;8.60;;;4.78;;
16426;SDS011;8322;-33.900;151.170;2023-05-19T09:03:47;10.55;;;4.55;;
16426;SDS011;8322;-33.900;151.170;2023-05-19T09:06:17;11.15;;;5.55;;
16426;SDS011;8322;-33.900;151.170;2023-05-19T09:08:46;11.15;;;6.10;;
16426;SDS011;8322;-33.900;151.170;2023-05-19T09:11:16;7.80;;;5.35;;
16426;SDS011;8322;-33.900;151.170;2023-05-19T09:13:49;10.95;;;4.97;;
16426;SDS011;8322;-33.900;151.170;2023-05-19T09:16:19;8.80;;;4.13;;
16426;SDS011;8322;-33.900;151.170;2023-05-19T09:18:55;11.40;;;4.47;;
16426;SDS011;8322;-33.900;151.170;2023-05-19T09:21:28;9.90;;;4.15;;
16426;SDS011;8322;-33.900;151.170;2023-05-19T09:24:02;13.80;;;4.15;;
16426;SDS011;8322;-33.900;151.170;2023-05-19T09:26:36;11.43;;;4.32;;
16426;SDS011;8322;-33.900;151.170;2023-05-19T09:29:13;12.30;;;5.25;;
16426;SDS011;8322;-33.900;151.170;2023-05-19T09:31:47;11.68;;;5.30;;
16426;SDS011;8322;-33.900;151.170;2023-05-19T09:34:17;11.32;;;4.28;;
16426;SDS011;8322;-33.900;151.170;2023-05-19T09:36:47;11.02;;;4.30;;
16426;SDS011;8322;-33.900;151.170;2023-05-19T09:39:18;9.48;;;4.60;;
16426;SDS011;8322;-33.900;151.170;2023-05-19T09:41:50;15.27;;;8.20;;
16426;SDS011;8322;-33.900;151.170;2023-05-19T09:44:24;14.23;;;7.50;;
16426;SDS011;8322;-33.900;151.170;2023-05-19T09:46:55;13.75;;;6.78;;
16426;SDS011;8322;-33.900;151.170;2023-05-19T09:49:25;12.50;;;6.57;;
16426;SDS011;8322;-33.900;151.170;2023-05-19T09:51:56;13.23;;;6.85;;
16426;SDS011;8322;-33.900;151.170;2023-05-19T09:54:26;11.82;;;6.50;;
16426;SDS011;8322;-33.900;151.170;2023-05-19T09:56:57;11.20;;;5.93;;
16426;SDS011;8322;-33.900;151.170;2023-05-19T09:59:29;13.52;;;6.30;;
16426;SDS011;8322;-33.900;151.170;2023-05-19T10:01:59;11.75;;;6.55;;
16426;SDS011;8322;-33.900;151.170;2023-05-19T10:04:29;12.63;;;6.63;;
16426;SDS011;8322;-33.900;151.170;2023-05-19T10:06:58;10.93;;;6.57;;
16426;SDS011;8322;-33.900;151.170;2023-05-19T10:09:30;8.90;;;5.40;;
16426;SDS011;8322;-33.900;151.170;2023-05-19T10:12:00;10.85;;;5.93;;
16426;SDS011;8322;-33.900;151.170;2023-05-19T10:14:32;9.35;;;5.30;;
16426;SDS011;8322;-33.900;151.170;2023-05-19T10:17:02;9.57;;;5.28;;
16426;SDS011;8322;-33.900;151.170;2023-05-19T10:19:32;13.38;;;6.22;;
16426;SDS011;8322;-33.900;151.170;2023-05-19T10:22:02;12.05;;;5.95;;
16426;SDS011;8322;-33.900;151.170;2023-05-19T10:24:31;9.50;;;5.13;;
16426;SDS011;8322;-33.900;151.170;2023-05-19T10:27:02;10.02;;;4.97;;
16426;SDS011;8322;-33.900;151.170;2023-05-19T10:29:35;10.38;;;5.30;;
16426;SDS011;8322;-33.900;151.170;2023-05-19T10:32:06;8.13;;;5.28;;
16426;SDS011;8322;-33.900;151.170;2023-05-19T10:34:52;9.88;;;5.35;;
16426;SDS011;8322;-33.900;151.170;2023-05-19T10:37:27;12.18;;;6.20;;
16426;SDS011;8322;-33.900;151.170;2023-05-19T10:40:04;10.57;;;5.97;;
16426;SDS011;8322;-33.900;151.170;2023-05-19T10:42:39;10.10;;;5.88;;
16426;SDS011;8322;-33.900;151.170;2023-05-19T10:45:12;9.43;;;5.60;;
16426;SDS011;8322;-33.900;151.170;2023-05-19T10:47:41;11.63;;;6.25;;
16426;SDS011;8322;-33.900;151.170;2023-05-19T10:50:12;9.55;;;5.45;;
16426;SDS011;8322;-33.900;151.170;2023-05-19T10:52:42;12.90;;;6.18;;
16426;SDS011;8322;-33.900;151.170;2023-05-19T10:55:13;9.05;;;5.78;;
16426;SDS011;8322;-33.900;151.170;2023-05-19T10:57:52;10.13;;;6.03;;
16426;SDS011;8322;-33.900;151.170;2023-05-19T11:00:30;9.98;;;6.10;;
16426;SDS011;8322;-33.900;151.170;2023-05-19T11:03:11;8.95;;;6.10;;
16426;SDS011;8322;-33.900;151.170;2023-05-19T11:05:41;11.80;;;7.18;;
16426;SDS011;8322;-33.900;151.170;2023-05-19T11:08:11;10.93;;;6.30;;
16426;SDS011;8322;-33.900;151.170;2023-05-19T11:10:42;10.25;;;5.90;;
16426;SDS011;8322;-33.900;151.170;2023-05-19T11:13:19;10.77;;;5.72;;
16426;SDS011;8322;-33.900;151.170;2023-05-19T11:15:50;9.93;;;5.35;;
16426;SDS011;8322;-33.900;151.170;2023-05-19T11:18:20;9.23;;;5.65;;
16426;SDS011;8322;-33.900;151.170;2023-05-19T11:20:54;13.80;;;7.72;;
16426;SDS011;8322;-33.900;151.170;2023-05-19T11:23:25;13.25;;;6.88;;
16426;SDS011;8322;-33.900;151.170;2023-05-19T11:25:54;17.60;;;12.23;;
16426;SDS011;8322;-33.900;151.170;2023-05-19T11:28:24;18.33;;;11.80;;
16426;SDS011;8322;-33.900;151.170;2023-05-19T11:30:56;15.63;;;9.38;;
16426;SDS011;8322;-33.900;151.170;2023-05-19T11:33:27;14.35;;;8.40;;
16426;SDS011;8322;-33.900;151.170;2023-05-19T11:35:56;10.15;;;6.35;;
16426;SDS011;8322;-33.900;151.170;2023-05-19T11:38:27;8.88;;;5.80;;
16426;SDS011;8322;-33.900;151.170;2023-05-19T11:40:56;9.38;;;5.10;;
16426;SDS011;8322;-33.900;151.170;2023-05-19T11:43:26;8.45;;;4.90;;
16426;SDS011;8322;-33.900;151.170;2023-05-19T11:45:58;10.40;;;5.72;;
16426;SDS011;8322;-33.900;151.170;2023-05-19T11:48:28;8.65;;;5.40;;
16426;SDS011;8322;-33.900;151.170;2023-05-19T11:50:59;9.48;;;5.65;;
16426;SDS011;8322;-33.900;151.170;2023-05-19T11:53:28;8.60;;;5.32;;
16426;SDS011;8322;-33.900;151.170;2023-05-19T11:56:02;9.50;;;5.82;;
16426;SDS011;8322;-33.900;151.170;2023-05-19T11:58:32;9.05;;;5.90;;
16426;SDS011;8322;-33.900;151.170;2023-05-19T12:01:06;9.88;;;6.00;;
16426;SDS011;8322;-33.900;151.170;2023-05-19T12:03:36;11.52;;;5.95;;
16426;SDS011;8322;-33.900;151.170;2023-05-19T12:06:05;11.98;;;6.00;;
16426;SDS011;8322;-33.900;151.170;2023-05-19T12:08:35;10.55;;;6.05;;
16426;SDS011;8322;-33.900;151.170;2023-05-19T12:11:05;10.82;;;5.60;;
16426;SDS011;8322;-33.900;151.170;2023-05-19T12:13:34;10.40;;;5.13;;
16426;SDS011;8322;-33.900;151.170;2023-05-19T12:16:04;9.93;;;5.45;;
16426;SDS011;8322;-33.900;151.170;2023-05-19T12:18:37;10.98;;;6.25;;
16426;SDS011;8322;-33.900;151.170;2023-05-19T12:21:07;8.23;;;5.50;;
16426;SDS011;8322;-33.900;151.170;2023-05-19T12:23:37;9.93;;;5.50;;
16426;SDS011;8322;-33.900;151.170;2023-05-19T12:26:06;9.13;;;4.97;;
16426;SDS011;8322;-33.900;151.170;2023-05-19T12:28:36;10.30;;;5.47;;
16426;SDS011;8322;-33.900;151.170;2023-05-19T12:31:06;8.35;;;5.20;;
16426;SDS011;8322;-33.900;151.170;2023-05-19T12:33:37;7.78;;;5.00;;
16426;SDS011;8322;-33.900;151.170;2023-05-19T12:36:07;8.77;;;5.60;;
16426;SDS011;8322;-33.900;151.170;2023-05-19T12:38:38;6.72;;;4.90;;
16426;SDS011;8322;-33.900;151.170;2023-05-19T12:41:09;8.35;;;6.05;;
16426;SDS011;8322;-33.900;151.170;2023-05-19T12:43:39;10.63;;;6.00;;
16426;SDS011;8322;-33.900;151.170;2023-05-19T12:46:12;11.40;;;6.07;;
16426;SDS011;8322;-33.900;151.170;2023-05-19T12:48:45;8.70;;;6.28;;
16426;SDS011;8322;-33.900;151.170;2023-05-19T12:51:17;11.57;;;6.65;;
16426;SDS011;8322;-33.900;151.170;2023-05-19T12:53:49;11.07;;;6.55;;
16426;SDS011;8322;-33.900;151.170;2023-05-19T12:56:18;12.80;;;6.90;;
16426;SDS011;8322;-33.900;151.170;2023-05-19T12:58:52;11.10;;;6.95;;
16426;SDS011;8322;-33.900;151.170;2023-05-19T13:01:23;9.35;;;6.28;;
16426;SDS011;8322;-33.900;151.170;2023-05-19T13:03:54;9.82;;;5.95;;
16426;SDS011;8322;-33.900;151.170;2023-05-19T13:06:24;10.57;;;5.40;;
16426;SDS011;8322;-33.900;151.170;2023-05-19T13:08:53;8.60;;;5.10;;
16426;SDS011;8322;-33.900;151.170;2023-05-19T13:11:23;8.77;;;4.88;;
16426;SDS011;8322;-33.900;151.170;2023-05-19T13:13:52;8.35;;;5.32;;
16426;SDS011;8322;-33.900;151.170;2023-05-19T13:16:22;7.60;;;4.88;;
16426;SDS011;8322;-33.900;151.170;2023-05-19T13:18:52;8.93;;;4.15;;
16426;SDS011;8322;-33.900;151.170;2023-05-19T13:21:23;8.65;;;4.88;;
16426;SDS011;8322;-33.900;151.170;2023-05-19T13:23:52;6.28;;;4.90;;
16426;SDS011;8322;-33.900;151.170;2023-05-19T13:26:22;7.40;;;4.90;;
16426;SDS011;8322;-33.900;151.170;2023-05-19T13:28:51;6.97;;;4.50;;
16426;SDS011;8322;-33.900;151.170;2023-05-19T13:31:21;10.85;;;4.75;;
16426;SDS011;8322;-33.900;151.170;2023-05-19T13:33:50;7.00;;;4.50;;
16426;SDS011;8322;-33.900;151.170;2023-05-19T13:36:20;7.18;;;4.25;;
16426;SDS011;8322;-33.900;151.170;2023-05-19T13:38:51;9.50;;;4.10;;
16426;SDS011;8322;-33.900;151.170;2023-05-19T13:41:24;5.50;;;4.07;;
16426;SDS011;8322;-33.900;151.170;2023-05-19T13:43:55;5.90;;;4.18;;
16426;SDS011;8322;-33.900;151.170;2023-05-19T13:46:25;5.45;;;4.00;;
16426;SDS011;8322;-33.900;151.170;2023-05-19T13:48:54;4.88;;;3.78;;
16426;SDS011;8322;-33.900;151.170;2023-05-19T13:51:24;5.18;;;4.05;;
16426;SDS011;8322;-33.900;151.170;2023-05-19T13:53:55;7.55;;;4.13;;
16426;SDS011;8322;-33.900;151.170;2023-05-19T13:56:24;5.80;;;3.90;;
16426;SDS011;8322;-33.900;151.170;2023-05-19T13:58:54;4.97;;;3.92;;
16426;SDS011;8322;-33.900;151.170;2023-05-19T14:01:23;5.53;;;4.10;;
16426;SDS011;8322;-33.900;151.170;2023-05-19T14:03:53;4.70;;;3.70;;
16426;SDS011;8322;-33.900;151.170;2023-05-19T14:06:22;6.95;;;4.25;;
16426;SDS011;8322;-33.900;151.170;2023-05-19T14:08:54;6.43;;;4.35;;
16426;SDS011;8322;-33.900;151.170;2023-05-19T14:11:24;5.90;;;4.03;;
16426;SDS011;8322;-33.900;151.170;2023-05-19T14:13:53;6.35;;;4.25;;
16426;SDS011;8322;-33.900;151.170;2023-05-19T14:16:23;7.72;;;4.22;;
16426;SDS011;8322;-33.900;151.170;2023-05-19T14:18:53;6.30;;;4.20;;
16426;SDS011;8322;-33.900;151.170;2023-05-19T14:21:23;6.03;;;4.10;;
16426;SDS011;8322;-33.900;151.170;2023-05-19T14:23:54;6.22;;;4.50;;
16426;SDS011;8322;-33.900;151.170;2023-05-19T14:26:23;6.53;;;4.65;;
16426;SDS011;8322;-33.900;151.170;2023-05-19T14:28:53;6.53;;;4.60;;
16426;SDS011;8322;-33.900;151.170;2023-05-19T14:31:23;8.10;;;4.45;;
16426;SDS011;8322;-33.900;151.170;2023-05-19T14:33:53;5.20;;;3.97;;
16426;SDS011;8322;-33.900;151.170;2023-05-19T14:36:22;6.82;;;3.90;;
16426;SDS011;8322;-33.900;151.170;2023-05-19T14:38:52;4.40;;;3.75;;
16426;SDS011;8322;-33.900;151.170;2023-05-19T14:41:23;5.53;;;3.60;;
16426;SDS011;8322;-33.900;151.170;2023-05-19T14:43:52;7.55;;;3.55;;